Time;durP1;ratioP1;P1;durP2;ratioP2;P2;SDS_P1;SDS_P2;PMS_P1;PMS_P2;Temp;Humidity;BMP_temperature;BMP_pressure;BME280_temperature;BME280_humidity;BME280_pressure;Samples;Min_cycle;Max_cycle;Signal;HPM_P1;HPM_P2
2023/05/28 00:00:06;;;;;;;8.60;4.15;;;;;;;16.78;40.53;96855.03;4860308;29;20089;-75
2023/05/28 00:02:36;;;;;;;8.40;4.10;;;;;;;16.67;42.43;96848.63;4860529;29;20129;-76
2023/05/28 00:05:05;;;;;;;8.77;4.78;;;;;;;16.63;41.35;96849.28;4859437;29;20053;-75
2023/05/28 00:07:34;;;;;;;8.18;4.10;;;;;;;16.56;41.66;96856.44;4860171;29;20049;-75
2023/05/28 00:10:01;;;;;;;8.30;3.88;;;;;;;16.51;42.31;96851.81;4860173;29;20049;-75
2023/05/28 00:12:29;;;;;;;9.48;4.57;;;;;;;16.46;42.08;96855.06;4860337;29;20057;-75
2023/05/28 00:14:57;;;;;;;7.65;3.90;;;;;;;16.38;42.26;96863.22;4861046;29;20087;-76
2023/05/28 00:17:24;;;;;;;8.25;4.05;;;;;;;16.29;42.67;96856.59;4872712;29;20053;-75
2023/05/28 00:19:52;;;;;;;5.13;3.88;;;;;;;16.28;43.62;96855.78;4872820;29;20053;-75
2023/05/28 00:22:20;;;;;;;8.13;3.67;;;;;;;16.26;42.63;96849.91;4872637;29;20136;-75
2023/05/28 00:24:49;;;;;;;7.50;4.03;;;;;;;16.17;42.81;96848.56;4863851;29;20057;-75
2023/05/28 00:27:17;;;;;;;7.97;4.07;;;;;;;16.07;42.91;96848.22;4861067;29;20063;-75
2023/05/28 00:29:44;;;;;;;7.40;4.03;;;;;;;15.96;43.25;96851.50;4860786;29;20091;-75
2023/05/28 00:32:12;;;;;;;6.72;3.60;;;;;;;15.85;43.44;96834.53;4860244;29;20487;-75
2023/05/28 00:34:40;;;;;;;9.05;4.50;;;;;;;15.76;43.71;96831.34;4859934;29;20113;-75
2023/05/28 00:37:07;;;;;;;7.78;3.65;;;;;;;15.71;43.92;96832.97;4860002;29;20434;-75
2023/05/28 00:39:35;;;;;;;11.75;4.15;;;;;;;15.63;43.99;96826.94;4860025;29;20141;-75
2023/05/28 00:42:07;;;;;;;8.10;3.88;;;;;;;15.55;44.29;96821.09;4859759;29;20479;-76
2023/05/28 00:44:35;;;;;;;9.85;4.15;;;;;;;15.52;44.30;96824.91;4859967;29;20053;-75
2023/05/28 00:47:03;;;;;;;8.77;4.00;;;;;;;15.53;44.39;96810.78;4859746;29;20073;-75
2023/05/28 00:49:32;;;;;;;8.23;4.13;;;;;;;15.56;44.20;96825.31;4859756;29;20061;-75
2023/05/28 00:52:01;;;;;;;8.68;4.65;;;;;;;15.52;44.39;96821.50;4859678;29;20050;-75
2023/05/28 00:54:30;;;;;;;9.02;4.82;;;;;;;15.53;44.35;96821.28;4859681;29;20053;-75
2023/05/28 00:56:58;;;;;;;8.40;4.38;;;;;;;15.50;44.61;96820.88;4859770;29;20476;-75
2023/05/28 00:59:28;;;;;;;8.02;4.80;;;;;;;15.42;44.27;96821.94;4859536;29;20057;-75
2023/05/28 01:01:56;;;;;;;9.77;4.55;;;;;;;15.42;45.16;96828.00;4859478;29;20157;-75
2023/05/28 01:04:24;;;;;;;7.80;4.63;;;;;;;15.41;44.67;96828.19;4859468;29;20061;-75
2023/05/28 01:06:52;;;;;;;9.27;4.50;;;;;;;15.34;44.67;96822.16;4859413;29;20057;-75
2023/05/28 01:09:20;;;;;;;7.25;4.50;;;;;;;15.26;44.98;96817.91;4859802;29;20110;-75
2023/05/28 01:11:50;;;;;;;6.80;4.30;;;;;;;15.19;46.05;96819.75;4859311;29;20563;-75
2023/05/28 01:14:19;;;;;;;7.50;4.72;;;;;;;15.17;46.12;96817.31;4859750;29;20057;-76
2023/05/28 01:16:49;;;;;;;6.22;4.43;;;;;;;15.16;47.14;96815.72;4862582;29;20049;-75
2023/05/28 01:19:18;;;;;;;9.60;4.57;;;;;;;15.09;45.72;96820.19;4863210;29;20058;-75
2023/05/28 01:21:47;;;;;;;8.82;4.43;;;;;;;14.93;45.97;96815.34;4862783;29;20115;-75
2023/05/28 01:24:17;;;;;;;6.50;4.15;;;;;;;14.87;47.25;96818.78;4862749;29;20061;-75
2023/05/28 01:26:45;;;;;;;9.30;4.55;;;;;;;14.86;46.05;96819.81;4862486;29;20089;-75
2023/05/28 01:29:17;;;;;;;13.70;5.03;;;;;;;14.77;45.95;96817.38;4862555;29;20502;-75
2023/05/28 01:31:45;;;;;;;8.25;4.45;;;;;;;14.69;46.22;96811.53;4862409;29;20062;-75
2023/05/28 01:34:13;;;;;;;8.25;4.53;;;;;;;14.63;46.70;96807.91;4862377;29;20057;-75
2023/05/28 01:36:45;;;;;;;7.72;4.97;;;;;;;14.55;47.44;96815.97;4862428;29;20053;-75
2023/05/28 01:39:19;;;;;;;8.13;4.38;;;;;;;14.45;47.91;96810.28;4862583;29;20121;-75
2023/05/28 01:41:47;;;;;;;6.80;4.38;;;;;;;14.41;48.72;96805.44;4862192;29;20053;-75
2023/05/28 01:44:18;;;;;;;8.40;4.35;;;;;;;14.38;48.18;96808.44;4862616;29;20137;-75
2023/05/28 01:46:47;;;;;;;8.57;4.72;;;;;;;14.35;48.20;96806.22;4862271;29;20062;-75
2023/05/28 01:49:15;;;;;;;8.13;5.25;;;;;;;14.35;48.16;96808.84;4862388;29;20045;-75
2023/05/28 01:51:44;;;;;;;8.63;5.63;;;;;;;14.32;48.31;96806.66;4862231;29;20049;-76
2023/05/28 01:54:12;;;;;;;10.18;4.97;;;;;;;14.25;48.61;96813.69;4862109;29;20053;-75
2023/05/28 01:56:41;;;;;;;5.75;4.20;;;;;;;14.23;48.88;96815.69;4861976;29;20058;-75
2023/05/28 01:59:08;;;;;;;9.05;4.80;;;;;;;14.25;49.41;96807.63;4862296;29;20054;-75
2023/05/28 02:01:36;;;;;;;8.70;5.32;;;;;;;14.28;48.75;96812.47;4861867;29;20045;-75
2023/05/28 02:04:04;;;;;;;10.95;5.30;;;;;;;14.26;49.69;96814.50;4862100;29;20489;-75
2023/05/28 02:06:34;;;;;;;8.10;5.18;;;;;;;14.27;49.11;96816.91;4862098;29;20091;-75
2023/05/28 02:09:02;;;;;;;6.70;4.80;;;;;;;14.28;48.93;96822.97;4861964;29;20533;-75
2023/05/28 02:11:29;;;;;;;10.30;4.93;;;;;;;14.30;48.65;96816.53;4862213;29;20053;-75
2023/05/28 02:13:59;;;;;;;7.00;4.30;;;;;;;14.30;49.52;96816.53;4862074;29;20057;-75
2023/05/28 02:16:27;;;;;;;8.48;4.50;;;;;;;14.27;49.15;96814.28;4862135;29;20053;-75
2023/05/28 02:18:55;;;;;;;9.63;5.15;;;;;;;14.28;48.86;96808.06;4861835;29;20057;-75
2023/05/28 02:21:23;;;;;;;7.32;4.57;;;;;;;14.23;49.13;96810.44;4861809;29;20106;-75
2023/05/28 02:23:51;;;;;;;9.63;4.40;;;;;;;14.20;49.91;96816.09;4869975;29;20121;-75
2023/05/28 02:26:18;;;;;;;6.85;4.38;;;;;;;14.15;49.54;96811.47;4874131;29;20056;-75
2023/05/28 02:28:46;;;;;;;8.27;5.00;;;;;;;14.13;49.38;96804.78;4868653;29;20065;-75
2023/05/28 02:31:15;;;;;;;9.23;4.57;;;;;;;14.15;49.82;96808.03;4863366;29;20045;-76
2023/05/28 02:33:43;;;;;;;5.00;4.38;;;;;;;14.18;50.25;96807.63;4862455;29;20537;-75
2023/05/28 02:36:12;;;;;;;12.07;4.90;;;;;;;14.16;49.17;96807.00;4861667;29;20129;-75
2023/05/28 02:38:40;;;;;;;5.63;3.97;;;;;;;14.04;49.72;96795.47;4861948;29;20072;-75
2023/05/28 02:41:08;;;;;;;6.90;4.38;;;;;;;13.93;49.96;96799.50;4861484;29;20053;-76
2023/05/28 02:43:36;;;;;;;7.03;4.22;;;;;;;13.90;50.34;96795.44;4861370;29;20494;-75
2023/05/28 02:46:03;;;;;;;7.57;4.60;;;;;;;13.91;50.62;96797.06;4861243;29;20053;-75
2023/05/28 02:48:32;;;;;;;7.85;4.50;;;;;;;13.88;50.24;96797.44;4861393;29;20057;-75
2023/05/28 02:51:00;;;;;;;11.57;5.65;;;;;;;13.80;50.02;96797.66;4861399;29;20518;-75
2023/05/28 02:53:31;;;;;;;6.75;4.38;;;;;;;13.72;51.56;96795.19;4861292;29;20129;-75
2023/05/28 02:55:58;;;;;;;6.50;4.40;;;;;;;13.76;51.11;96793.81;4861051;29;20065;-76
2023/05/28 02:58:26;;;;;;;7.68;4.80;;;;;;;13.77;50.32;96795.41;4861250;29;20066;-75
2023/05/28 03:00:53;;;;;;;6.35;4.43;;;;;;;13.70;50.48;96787.53;4860987;29;20065;-74
2023/05/28 03:03:21;;;;;;;6.03;4.38;;;;;;;13.73;50.51;96791.56;4860837;29;20059;-75
2023/05/28 03:05:51;;;;;;;6.05;4.13;;;;;;;13.80;50.65;96795.03;4861003;29;20053;-75
2023/05/28 03:08:20;;;;;;;8.40;4.20;;;;;;;13.86;50.51;96791.59;4861112;29;20058;-75
2023/05/28 03:10:47;;;;;;;8.65;4.60;;;;;;;13.86;50.10;96788.97;4860897;29;20058;-75
2023/05/28 03:13:15;;;;;;;8.80;4.70;;;;;;;13.76;50.33;96799.03;4860808;29;20081;-75
2023/05/28 03:15:42;;;;;;;11.52;5.70;;;;;;;13.61;50.55;96804.44;4860534;29;20088;-75
2023/05/28 03:18:10;;;;;;;8.63;5.35;;;;;;;13.52;51.20;96800.38;4860694;29;20053;-76
2023/05/28 03:20:38;;;;;;;8.88;4.65;;;;;;;13.43;50.81;96796.31;4861449;29;20050;-75
2023/05/28 03:23:07;;;;;;;9.23;5.53;;;;;;;13.30;51.24;96802.28;4860908;29;20061;-76
2023/05/28 03:25:35;;;;;;;9.32;5.45;;;;;;;13.20;51.28;96803.38;4861060;29;20061;-76
2023/05/28 03:28:02;;;;;;;6.53;4.30;;;;;;;13.22;52.78;96802.41;4861232;29;20064;-76
2023/05/28 04:13:36;;;;;;;8.93;4.43;;;;;;;12.80;53.18;96804.16;4908161;23;20057;-74
2023/05/28 04:16:05;;;;;;;9.45;4.90;;;;;;;12.86;52.76;96800.78;4859735;29;20088;-74
2023/05/28 04:18:33;;;;;;;7.93;4.50;;;;;;;12.92;52.27;96797.38;4860003;29;20117;-74
2023/05/28 04:21:01;;;;;;;12.45;5.05;;;;;;;12.95;52.54;96791.78;4859819;29;20063;-74
2023/05/28 04:23:29;;;;;;;7.25;4.57;;;;;;;12.97;53.44;96795.81;4859613;29;20113;-75
2023/05/28 04:25:57;;;;;;;9.48;5.50;;;;;;;12.98;53.28;96799.22;4859604;29;20053;-74
2023/05/28 04:28:27;;;;;;;8.88;5.47;;;;;;;12.98;52.95;96796.63;4859923;29;20574;-75
2023/05/28 04:31:00;;;;;;;8.65;5.07;;;;;;;12.97;52.61;96800.25;4859930;29;20057;-74
2023/05/28 04:33:28;;;;;;;9.98;5.15;;;;;;;12.99;52.38;96800.88;4859801;29;20447;-75
2023/05/28 04:35:56;;;;;;;8.45;4.70;;;;;;;13.01;52.59;96796.25;4859545;29;20080;-75
2023/05/28 04:38:24;;;;;;;10.02;5.15;;;;;;;13.03;53.10;96796.88;4859545;29;20054;-75
2023/05/28 04:40:53;;;;;;;7.93;4.68;;;;;;;13.09;53.75;96813.59;4859830;29;20403;-75
2023/05/28 04:43:21;;;;;;;7.30;4.53;;;;;;;13.22;54.19;96805.03;4859584;29;20054;-74
2023/05/28 04:45:48;;;;;;;9.65;5.25;;;;;;;13.29;52.97;96803.28;4859338;29;20061;-75
2023/05/28 04:48:18;;;;;;;8.13;4.97;;;;;;;13.34;53.20;96806.13;4859653;29;20060;-75
2023/05/28 04:50:45;;;;;;;9.48;5.45;;;;;;;13.40;52.38;96810.56;4861593;29;20132;-74
2023/05/28 04:53:13;;;;;;;7.97;4.97;;;;;;;13.42;52.39;96808.56;4863396;29;20222;-75
2023/05/28 04:55:41;;;;;;;12.35;4.85;;;;;;;13.45;52.40;96802.97;4863340;29;20053;-75
2023/05/28 04:58:09;;;;;;;9.88;4.72;;;;;;;13.48;52.50;96799.94;4863386;29;20447;-75
2023/05/28 05:00:36;;;;;;;11.98;4.90;;;;;;;13.60;52.36;96808.06;4863211;29;20057;-75
2023/05/28 05:03:04;;;;;;;9.90;4.88;;;;;;;13.64;51.77;96808.47;4862837;29;20162;-75
2023/05/28 05:05:33;;;;;;;9.35;4.97;;;;;;;13.59;51.99;96812.47;4865150;29;20502;-74
2023/05/28 05:08:01;;;;;;;12.43;5.32;;;;;;;13.54;51.91;96812.25;4884572;29;20053;-75
2023/05/28 05:10:29;;;;;;;7.72;4.50;;;;;;;13.53;53.19;96812.44;4885579;29;20065;-75
2023/05/28 05:12:56;;;;;;;7.40;4.97;;;;;;;13.58;52.56;96808.25;4884833;29;20041;-76
2023/05/28 05:15:24;;;;;;;7.50;5.35;;;;;;;13.66;52.32;96803.84;4864426;29;20053;-75
2023/05/28 05:17:52;;;;;;;11.35;5.47;;;;;;;13.73;51.93;96807.28;4863037;29;20049;-74
2023/05/28 05:20:19;;;;;;;11.00;5.63;;;;;;;13.81;51.45;96809.75;4862994;29;20053;-76
2023/05/28 05:22:48;;;;;;;5.72;3.70;;;;;;;13.95;51.23;96805.34;4862824;29;20141;-75
2023/05/28 05:25:16;;;;;;;6.47;3.70;;;;;;;14.05;50.12;96803.16;4862758;29;20049;-75
2023/05/28 05:27:43;;;;;;;11.25;4.35;;;;;;;14.17;49.69;96804.19;4875285;29;20057;-75
2023/05/28 05:30:12;;;;;;;7.00;3.50;;;;;;;14.27;49.33;96800.38;4874100;29;20083;-76
2023/05/28 05:32:39;;;;;;;10.23;4.60;;;;;;;14.35;49.17;96802.81;4853123;29;20092;-75
2023/05/28 05:35:07;;;;;;;8.40;4.20;;;;;;;14.41;49.19;96808.06;4857510;29;20054;-75
2023/05/28 05:37:35;;;;;;;10.80;4.10;;;;;;;14.51;49.21;96806.84;4862756;29;20110;-75
2023/05/28 05:40:06;;;;;;;6.50;4.05;;;;;;;14.57;49.24;96803.47;4862666;29;20159;-76
2023/05/28 05:42:37;;;;;;;10.95;4.47;;;;;;;14.62;49.03;96801.81;4869726;29;20133;-86
2023/05/28 05:45:06;;;;;;;9.18;4.28;;;;;;;14.69;49.43;96807.06;4876848;29;20117;-85
2023/05/28 05:47:33;;;;;;;7.80;3.75;;;;;;;14.77;49.76;96800.81;4852393;29;20418;-85
2023/05/28 05:50:03;;;;;;;7.72;4.13;;;;;;;14.88;49.46;96805.44;4851372;29;20058;-86
2023/05/28 05:52:30;;;;;;;8.15;4.43;;;;;;;14.97;49.38;96800.78;4850012;29;20451;-85
2023/05/28 05:54:58;;;;;;;8.27;4.10;;;;;;;15.06;48.81;96807.44;4844763;29;20102;-76
2023/05/28 05:57:27;;;;;;;7.78;3.63;;;;;;;15.14;49.40;96809.88;4855226;29;20049;-76
2023/05/28 05:59:55;;;;;;;11.50;4.10;;;;;;;15.19;48.87;96815.28;4861124;29;20054;-75
2023/05/28 06:02:22;;;;;;;8.60;3.83;;;;;;;15.25;48.04;96805.81;4860353;29;20058;-76
2023/05/28 06:04:51;;;;;;;10.20;4.43;;;;;;;15.33;47.92;96810.03;4861042;29;20054;-76
2023/05/28 06:07:19;;;;;;;9.38;4.45;;;;;;;15.40;47.44;96808.19;4861315;29;20081;-77
2023/05/28 06:09:46;;;;;;;8.07;4.13;;;;;;;15.46;47.38;96804.75;4861548;29;20105;-77
2023/05/28 06:12:14;;;;;;;10.02;4.25;;;;;;;15.53;47.50;96799.47;4860951;29;20057;-77
2023/05/28 06:14:43;;;;;;;6.05;3.45;;;;;;;15.61;47.47;96802.66;4861133;29;20050;-77
2023/05/28 06:17:10;;;;;;;9.63;4.05;;;;;;;15.68;47.57;96799.16;4861486;29;20088;-77
2023/05/28 06:19:38;;;;;;;7.70;3.63;;;;;;;15.74;47.21;96799.19;4861785;29;20057;-77
2023/05/28 06:22:06;;;;;;;7.93;4.05;;;;;;;15.81;47.07;96804.44;4860686;29;20057;-77
2023/05/28 06:24:33;;;;;;;10.07;4.30;;;;;;;15.90;46.94;96805.00;4856660;29;20109;-76
2023/05/28 06:27:03;;;;;;;8.50;4.32;;;;;;;15.96;46.51;96810.22;4861169;29;20110;-76
2023/05/28 06:29:30;;;;;;;9.13;4.40;;;;;;;16.03;46.50;96804.94;4860694;29;20082;-77
2023/05/28 06:32:00;;;;;;;9.45;4.15;;;;;;;16.09;46.57;96805.88;4860880;29;20054;-77
2023/05/28 06:34:27;;;;;;;6.55;3.70;;;;;;;16.18;46.29;96809.88;4860859;29;20049;-76
2023/05/28 06:36:55;;;;;;;10.57;4.05;;;;;;;16.26;46.08;96807.00;4860919;29;20086;-77
2023/05/28 06:39:22;;;;;;;10.75;4.32;;;;;;;16.32;45.95;96806.16;4861452;29;20096;-77
2023/05/28 06:41:50;;;;;;;8.88;3.50;;;;;;;16.39;45.73;96808.75;4856472;29;20140;-77
2023/05/28 06:44:18;;;;;;;8.73;3.63;;;;;;;16.44;45.69;96809.72;4860848;29;20110;-77
2023/05/28 06:46:45;;;;;;;8.50;3.85;;;;;;;16.52;45.87;96813.09;4860766;29;20223;-77
2023/05/28 06:49:14;;;;;;;6.63;3.88;;;;;;;16.63;45.72;96809.78;4861011;29;20050;-76
2023/05/28 06:51:42;;;;;;;10.50;3.90;;;;;;;16.68;45.38;96797.59;4860366;29;20053;-77
2023/05/28 06:54:10;;;;;;;8.02;3.72;;;;;;;16.75;45.12;96805.44;4860678;29;20082;-77
2023/05/28 06:56:37;;;;;;;8.27;4.05;;;;;;;16.79;44.81;96813.69;4860985;29;20501;-78
2023/05/28 06:59:05;;;;;;;7.82;3.85;;;;;;;16.84;45.26;96806.78;4861419;29;20049;-78
2023/05/28 07:01:33;;;;;;;10.65;4.47;;;;;;;16.91;44.67;96812.00;4860088;29;20113;-78
2023/05/28 07:04:00;;;;;;;7.72;3.63;;;;;;;16.98;44.56;96811.94;4861102;29;20045;-79
2023/05/28 07:06:30;;;;;;;13.27;4.30;;;;;;;17.03;44.35;96815.56;4861111;29;20579;-79
2023/05/28 07:08:58;;;;;;;8.85;3.90;;;;;;;17.10;44.57;96815.50;4861762;29;20498;-77
2023/05/28 07:11:27;;;;;;;7.72;3.75;;;;;;;17.18;44.32;96817.81;4861350;29;20053;-78
2023/05/28 07:13:54;;;;;;;7.53;3.95;;;;;;;17.24;44.13;96816.94;4861596;29;20100;-79
2023/05/28 07:16:22;;;;;;;8.07;3.55;;;;;;;17.33;44.15;96820.09;4861347;29;20054;-78
2023/05/28 07:18:50;;;;;;;10.77;4.38;;;;;;;17.41;43.70;96813.75;4861766;29;20063;-78
2023/05/28 07:21:18;;;;;;;10.45;3.67;;;;;;;17.48;43.68;96823.19;4861947;29;20053;-78
2023/05/28 07:23:47;;;;;;;9.68;3.85;;;;;;;17.54;43.66;96824.16;4861495;29;20152;-78
2023/05/28 07:26:15;;;;;;;10.30;4.57;;;;;;;17.61;43.67;96824.06;4860885;29;20059;-78
2023/05/28 07:28:44;;;;;;;7.07;4.00;;;;;;;17.67;43.79;96825.84;4862067;29;20148;-85
2023/05/28 07:31:11;;;;;;;8.65;4.20;;;;;;;17.74;43.69;96825.75;4862349;29;20049;-76
2023/05/28 07:33:41;;;;;;;9.02;3.45;;;;;;;17.81;43.71;96832.53;4860019;29;20514;-78
2023/05/28 07:36:10;;;;;;;5.80;3.40;;;;;;;17.88;43.51;96825.38;4861800;29;20145;-78
2023/05/28 07:38:37;;;;;;;9.50;3.90;;;;;;;17.96;43.50;96824.28;4862806;29;20060;-78
2023/05/28 07:41:06;;;;;;;8.05;3.85;;;;;;;18.05;43.60;96827.41;4861701;29;20054;-76
2023/05/28 07:43:34;;;;;;;8.60;4.22;;;;;;;18.15;43.23;96829.50;4860198;29;20514;-76
2023/05/28 07:46:02;;;;;;;8.18;3.80;;;;;;;18.24;43.06;96831.63;4859457;29;20419;-77
2023/05/28 07:48:29;;;;;;;6.60;4.07;;;;;;;18.35;43.17;96827.41;4859970;29;20056;-77
2023/05/28 07:50:57;;;;;;;7.43;3.63;;;;;;;18.44;42.50;96833.19;4859657;29;20121;-77
2023/05/28 07:53:24;;;;;;;11.10;4.32;;;;;;;18.52;43.00;96838.94;4859414;29;20109;-77
2023/05/28 07:55:53;;;;;;;8.13;4.05;;;;;;;18.62;42.08;96840.22;4859723;29;20125;-76
2023/05/28 07:58:22;;;;;;;6.25;3.35;;;;;;;18.70;41.66;96845.97;4859720;29;20046;-77
2023/05/28 08:00:50;;;;;;;10.43;4.25;;;;;;;18.79;41.76;96835.91;4858886;29;20136;-77
2023/05/28 08:03:17;;;;;;;8.25;4.30;;;;;;;18.88;41.65;96837.19;4859889;29;20057;-77
2023/05/28 08:05:45;;;;;;;6.22;3.38;;;;;;;18.99;41.49;96830.28;4857526;29;20057;-76
2023/05/28 08:08:13;;;;;;;8.32;4.10;;;;;;;19.09;41.49;96827.88;4859428;29;20072;-77
2023/05/28 08:10:41;;;;;;;9.55;3.72;;;;;;;19.19;41.33;96824.66;4859562;29;20459;-77
2023/05/28 08:13:08;;;;;;;6.43;3.22;;;;;;;19.30;41.27;96821.19;4859102;29;20053;-76
2023/05/28 08:15:37;;;;;;;8.23;3.90;;;;;;;19.42;40.22;96825.69;4858811;29;20113;-77
2023/05/28 08:18:06;;;;;;;8.07;3.97;;;;;;;19.51;40.64;96824.28;4859675;29;20136;-79
2023/05/28 08:20:35;;;;;;;11.20;4.55;;;;;;;19.59;40.94;96826.56;4860239;29;20077;-79
2023/05/28 08:23:03;;;;;;;8.55;3.97;;;;;;;19.67;40.56;96815.59;4859749;29;20550;-78
2023/05/28 08:25:31;;;;;;;7.40;3.70;;;;;;;19.74;40.41;96824.28;4858777;29;20113;-77
2023/05/28 08:27:59;;;;;;;9.50;4.07;;;;;;;19.84;40.50;96818.34;4860178;29;20053;-78
2023/05/28 08:30:26;;;;;;;8.50;3.47;;;;;;;19.93;40.07;96824.09;4860621;29;20074;-77
2023/05/28 08:32:55;;;;;;;9.77;3.63;;;;;;;20.04;39.92;96817.94;4859972;29;20505;-78
2023/05/28 08:35:23;;;;;;;7.72;3.28;;;;;;;20.15;39.89;96818.94;4849781;29;20079;-78
2023/05/28 08:37:51;;;;;;;8.60;3.70;;;;;;;20.27;39.61;96816.22;4859082;29;20049;-78
2023/05/28 08:40:19;;;;;;;10.50;4.07;;;;;;;20.32;39.50;96816.31;4859802;29;20093;-77
2023/05/28 08:42:47;;;;;;;6.85;3.40;;;;;;;20.40;39.21;96808.00;4859977;29;20053;-78
2023/05/28 08:45:14;;;;;;;8.23;3.45;;;;;;;20.51;39.52;96799.16;4859355;29;20049;-77
2023/05/28 08:47:43;;;;;;;8.43;4.20;;;;;;;20.65;39.51;96812.94;4848104;29;20191;-77
2023/05/28 08:50:16;;;;;;;5.70;3.20;;;;;;;20.76;37.94;96813.88;4841283;29;20526;-78
2023/05/28 08:52:47;;;;;;;8.98;3.92;;;;;;;20.84;38.81;96805.53;4840728;29;20115;-76
2023/05/28 08:55:15;;;;;;;7.20;3.30;;;;;;;20.94;38.12;96805.69;4842908;29;20092;-79
2023/05/28 08:57:45;;;;;;;7.93;3.38;;;;;;;21.02;37.92;96804.47;4842811;29;20472;-77
2023/05/28 09:00:13;;;;;;;9.15;3.95;;;;;;;21.10;38.89;96801.41;4856246;29;20049;-77
2023/05/28 09:02:41;;;;;;;9.63;4.13;;;;;;;21.18;39.15;96800.97;4858850;29;20528;-77
2023/05/28 09:05:09;;;;;;;9.68;3.88;;;;;;;21.25;39.86;96795.50;4859554;29;20087;-77
2023/05/28 09:07:38;;;;;;;9.98;4.05;;;;;;;21.32;39.14;96790.03;4859416;29;20060;-78
2023/05/28 09:10:07;;;;;;;9.45;3.90;;;;;;;21.40;38.88;96786.94;4859080;29;20082;-78
2023/05/28 09:12:36;;;;;;;6.80;3.60;;;;;;;21.46;36.77;96779.88;4859518;29;20053;-79
2023/05/28 09:15:05;;;;;;;5.10;3.13;;;;;;;21.57;36.97;96789.56;4859505;29;20091;-79
2023/05/28 09:17:35;;;;;;;7.78;2.58;;;;;;;21.69;36.31;96782.28;4841241;29;20058;-79
2023/05/28 09:20:11;;;;;;;9.23;3.97;;;;;;;21.80;35.63;96775.25;4841329;29;20095;-79
2023/05/28 09:22:40;;;;;;;7.40;3.03;;;;;;;21.89;34.95;96775.59;4845344;29;20057;-79
2023/05/28 09:25:09;;;;;;;5.68;3.45;;;;;;;21.98;35.42;96782.06;4858832;29;20467;-78
2023/05/28 09:27:37;;;;;;;5.25;2.97;;;;;;;22.02;33.76;96780.53;4859808;29;20107;-79
2023/05/28 09:30:07;;;;;;;8.95;3.65;;;;;;;22.04;33.41;96781.06;4860196;29;20053;-80
2023/05/28 09:32:35;;;;;;;6.10;2.88;;;;;;;22.08;33.24;96770.72;4856607;29;20053;-80
2023/05/28 09:35:05;;;;;;;11.82;3.38;;;;;;;22.12;33.25;96777.94;4859941;29;20491;-79
2023/05/28 09:37:35;;;;;;;8.95;3.67;;;;;;;22.12;32.81;96771.84;4862023;29;20061;-79
2023/05/28 09:40:07;;;;;;;7.47;3.15;;;;;;;22.12;32.45;96777.94;4848241;29;20133;-80
2023/05/28 09:42:41;;;;;;;4.95;3.03;;;;;;;22.15;32.73;96779.28;4846843;29;20057;-79
2023/05/28 09:45:10;;;;;;;7.45;3.35;;;;;;;22.18;32.35;96776.16;4846178;29;20138;-79
2023/05/28 09:47:42;;;;;;;5.57;3.40;;;;;;;22.17;32.77;96780.66;4847297;29;20080;-79
2023/05/28 09:50:11;;;;;;;9.75;2.85;;;;;;;22.18;32.26;96776.16;4862647;29;20555;-79
2023/05/28 09:52:39;;;;;;;8.77;2.97;;;;;;;22.19;32.18;96777.75;4863458;29;20057;-79
2023/05/28 09:55:12;;;;;;;6.75;3.00;;;;;;;22.19;31.55;96780.41;4866639;29;20121;-79
2023/05/28 09:57:42;;;;;;;;;;;;;;;22.20;31.62;96780.16;4865772;29;20049;-79
2023/05/28 10:00:19;;;;;;;7.18;3.55;;;;;;;22.20;31.94;96782.81;4865173;29;20037;-79
2023/05/28 10:02:56;;;;;;;8.10;3.63;;;;;;;22.21;32.69;96772.97;4864906;29;20060;-79
2023/05/28 10:05:27;;;;;;;6.68;3.22;;;;;;;22.21;33.45;96773.81;4863560;29;20056;-78
2023/05/28 10:07:57;;;;;;;8.50;3.75;;;;;;;22.29;34.00;96779.72;4863866;29;20053;-79
2023/05/28 10:10:27;;;;;;;5.72;3.08;;;;;;;22.38;33.14;96786.19;4863725;29;20061;-79
2023/05/28 10:12:57;;;;;;;5.53;3.08;;;;;;;22.42;33.27;96769.47;4863610;29;20057;-79
2023/05/28 10:15:25;;;;;;;8.80;3.80;;;;;;;22.48;33.83;96769.50;4863716;29;20045;-79
2023/05/28 10:17:53;;;;;;;5.00;3.20;;;;;;;22.51;34.38;96769.81;4863894;29;20595;-79
2023/05/28 10:20:21;;;;;;;6.25;3.13;;;;;;;22.55;34.25;96767.47;4863445;29;20118;-80
2023/05/28 10:22:49;;;;;;;11.63;4.40;;;;;;;22.55;33.17;96770.91;4863323;29;20057;-80
2023/05/28 10:30:42;;;;;;;10.20;4.00;;;;;;;22.59;34.47;96774.69;5087185;23;20061;-84
2023/05/28 10:33:12;;;;;;;8.88;3.63;;;;;;;22.63;33.82;96778.44;4880718;29;20045;-80
2023/05/28 10:35:52;;;;;;;5.75;3.63;;;;;;;22.67;33.67;96769.94;4881139;29;20117;-80
2023/05/28 10:38:20;;;;;;;8.02;3.70;;;;;;;22.68;33.85;96763.56;4875594;29;20062;-80
2023/05/28 10:40:49;;;;;;;9.02;3.90;;;;;;;22.71;33.92;96768.38;4881710;29;20069;-79
2023/05/28 10:43:45;;;;;;;5.70;3.15;;;;;;;22.78;33.76;96774.25;4881416;29;20057;-81
2023/05/28 10:52:37;;;;;;;7.80;3.05;;;;;;;22.94;33.20;96773.31;5031971;23;20045;-83
2023/05/28 11:44:26;;;;;;;6.75;2.70;;;;;;;23.45;31.04;96735.53;4956862;23;20076;-79
2023/05/28 11:46:56;;;;;;;;;;;;;;;23.47;31.68;96740.63;4881694;29;20060;-80
2023/05/28 11:49:40;;;;;;;9.23;3.53;;;;;;;23.45;30.96;96739.00;4883431;29;19933;-80
2023/05/28 11:52:12;;;;;;;9.32;3.50;;;;;;;23.53;30.96;96736.91;4885446;29;20049;-79
2023/05/28 12:24:32;;;;;;;6.88;3.38;;;;;;;23.81;30.41;96723.19;4858491;29;20098;-79
2023/05/28 12:27:00;;;;;;;6.65;3.47;;;;;;;23.83;30.17;96718.38;4859699;29;20469;-82
2023/05/28 12:29:28;;;;;;;8.10;3.38;;;;;;;23.85;30.03;96710.13;4860685;29;20467;-82
2023/05/28 12:31:58;;;;;;;6.65;3.55;;;;;;;23.88;32.11;96708.78;4859907;29;20054;-80
2023/05/28 12:40:00;;;;;;;8.38;3.10;;;;;;;23.92;29.09;96707.19;4888871;23;20053;-84
2023/05/28 12:42:37;;;;;;;5.15;3.15;;;;;;;23.90;30.86;96704.81;4884820;29;20066;-80
2023/05/28 12:45:11;;;;;;;7.07;3.25;;;;;;;23.84;30.16;96711.97;4884583;29;20066;-81
2023/05/28 13:30:47;;;;;;;9.43;4.20;;;;;;;23.87;30.31;96668.03;4843479;29;20061;-78
2023/05/28 13:33:20;;;;;;;6.50;3.67;;;;;;;23.89;30.15;96673.09;4859983;29;20034;-83
2023/05/28 14:20:25;;;;;;;7.60;4.75;;;;;;;23.91;31.51;96628.34;4976854;23;20041;-80
2023/05/28 16:25:20;;;;;;;5.72;3.67;;;;;;;23.70;27.81;96585.69;4544945;23;20057;-79
2023/05/28 16:27:49;;;;;;;7.22;4.00;;;;;;;23.71;27.93;96581.97;4858755;29;20049;-78
2023/05/28 16:30:17;;;;;;;7.78;3.92;;;;;;;23.68;28.38;96574.53;4858799;29;20141;-79
2023/05/28 16:32:45;;;;;;;6.18;3.50;;;;;;;23.67;28.21;96580.91;4858744;29;20121;-79
2023/05/28 16:35:14;;;;;;;6.00;3.85;;;;;;;23.64;28.27;96579.56;4858839;29;20389;-79
2023/05/28 16:37:42;;;;;;;6.68;3.53;;;;;;;23.64;28.85;96589.44;4858669;29;20113;-80
2023/05/28 16:40:11;;;;;;;4.35;3.10;;;;;;;23.64;28.49;96576.13;4860145;29;20422;-79
2023/05/28 16:42:42;;;;;;;5.55;3.35;;;;;;;23.63;27.83;96577.16;4860101;29;20145;-78
2023/05/28 16:45:11;;;;;;;8.38;4.90;;;;;;;23.60;28.49;96583.03;4859640;29;20071;-79
2023/05/28 16:47:39;;;;;;;7.50;4.97;;;;;;;23.57;28.10;96587.03;4863771;29;20088;-80
2023/05/28 16:50:08;;;;;;;28.33;22.92;;;;;;;23.55;28.28;96578.50;4864202;29;20049;-79
2023/05/28 16:52:36;;;;;;;11.52;8.27;;;;;;;23.56;28.65;96581.97;4864134;29;20057;-79
2023/05/28 16:55:04;;;;;;;33.47;26.27;;;;;;;23.55;28.54;96581.16;4863445;29;20053;-80
2023/05/28 16:57:32;;;;;;;18.52;11.90;;;;;;;23.56;28.91;96581.97;4863568;29;20053;-79
2023/05/28 17:00:01;;;;;;;34.97;23.33;;;;;;;23.55;28.66;96575.00;4863702;29;20129;-79
2023/05/28 17:02:33;;;;;;;28.55;20.80;;;;;;;23.55;29.14;96569.69;4863860;29;20061;-79
2023/05/28 17:05:01;;;;;;;39.25;27.55;;;;;;;23.53;29.16;96579.84;4863620;29;20050;-80
2023/05/28 17:07:29;;;;;;;14.27;9.93;;;;;;;23.53;29.37;96572.63;4863912;29;20049;-80
2023/05/28 17:09:56;;;;;;;9.43;6.43;;;;;;;23.51;29.54;96577.44;4863781;29;20575;-80
2023/05/28 17:12:24;;;;;;;8.63;4.28;;;;;;;23.50;29.22;96575.03;4863786;29;20121;-79
2023/05/28 17:14:51;;;;;;;6.82;5.18;;;;;;;23.49;29.22;96576.09;4863099;29;20112;-79
2023/05/28 17:17:20;;;;;;;39.92;32.38;;;;;;;23.47;29.15;96586.22;4863370;29;20050;-79
2023/05/28 17:19:48;;;;;;;21.35;15.95;;;;;;;23.44;29.88;96584.88;4863432;29;20128;-79
2023/05/28 17:22:15;;;;;;;16.13;13.75;;;;;;;23.43;29.37;96584.06;4863360;29;20495;-80
2023/05/28 17:24:43;;;;;;;13.15;8.40;;;;;;;23.43;29.03;96583.28;4863540;29;20109;-78
2023/05/28 17:27:12;;;;;;;8.65;4.85;;;;;;;23.40;29.22;96589.13;4863353;29;20468;-81